Flight ASXVIP1X

  • Submitted By: Krzysztof H. Blaszkow
  • Departure Airport: Bornholm Rønne (EKRN)
  • Arrival Airport: Gdansk im. Lecha Walesy (EPGD)
  • Aircraft: BE58 (SP-MVL)
  • Flight Time: 01.26.57
  • Date Submitted: 02/15/2017
  • Status: Rejected
Flight Details
Gross Revenue:
(5 load / € 400.00 per unit
€ 2,000.00
Fuel Cost:
(65.3173 fuel used @ 0.45 / unit)
€ 29.39

Additional Log Information:

View Log

[22:20] - Carenado BARON B58 METAL BLUE
[22:20] - Flight ASXVIP1X is ready to depart EKRN with a final destination of EPGD.
[22:20] - Parking Brake Applied
[22:20] - Navigation Lights ON
[22:20] - Beacon Light ON
[22:20] - Instrument Lights ON
[22:20] - Recognition Lights ON
[22:20] - Wing Lights ON
[22:20] - Logo Lights ON
[22:20] - Boarding
[22:20] - ADF1 - 284.0
[22:20] - ADF2 - 240.0
[22:20] - NAV1 - 110.30
[22:20] - NAV2 - 116.10
[22:20] - COM1 - 122.80
[22:20] - COM2 - 123.45
[22:20] - Transponder - 2000
[22:25] - Engine 2 Started
[22:25] - Engine 1 Started
[22:25] - NAV1 - 112.00
[22:26] - Parking Brake Released
[22:26] - Taxi Lights ON 3AGL
[22:27] - Taxiing to Runway
[22:28] - Strobe Lights ON 3AGL
[22:28] - Landing Lights ON 3AGL
[22:28] - Taxi Lights OFF 3AGL
[22:31] - Taking Off with 5 passengers on board
[22:31] - Take off at 89kts, with a pitch of 7deg and 387lbs of fuel on board
[22:31] - Wind Heading 334 | Wind Speed 2kts | Temperature -1 deg C
[22:31] - METAR Departure: EKRN 142150Z AUTO 33002KT 1900NDV BR NCD M01/M01 Q1036

[22:31] - Gear up at 236AGL
[22:31] - Climbing to TOC
[22:36] - AutoPilot Engaged at 9065AGL
[22:38] - Landing Lights OFF 10817AGL
[22:44] - NAV1 - 116.10
[22:46] - TOC reached
[22:46] - Cruise started
[22:47] - Cabin Lights ON 15653AGL
[23:05] - NAV1 - 110.30
[23:06] - NAV1 - 116.10
[23:11] - Cabin Lights OFF 15630AGL
[23:17] - TOD reached
[23:17] - Descending to destination
[23:22] - NAV1 - 110.30
[23:23] - Landing Lights ON 10538AGL
[23:31] - Landing Shortly
[23:35] - Flaps to position 1 at 2598ft and 166kts
[23:35] - Gear down at 2260AGL
[23:38] - AutoPilot Disengaged at 259AGL
[23:38] - Landed at -281fpm. With 247lbs of fuel onboard and a pitch angle of 1deg.
[23:38] - Wind Heading 273 | Wind Speed 4kts | Temperature -1 deg C
[23:38] - METAR Arrival: EPGD 142300Z 26005KT 2000 BR OVC001 M03/M03 Q1034

[23:39] - Taxiing to Gate
[23:41] - Taxi Lights ON 0AGL
[23:41] - Landing Lights OFF 0AGL
[23:41] - Strobe Lights OFF 0AGL
[23:41] - Flaps to position 0
[23:47] - Parking Brake Applied
[23:47] - Arrived safely at EPGD. We hope you enjoyed your flight!
[23:47] - Taxi Lights OFF 0AGL
[23:47] - Engine 1 Stopped
[23:47] - Engine 2 Stopped
[23:48] - Carenado BARON B58 METAL BLUE
[23:48] - MaxSim Rate: 1x
[23:48] - SiouxAcars ver: 1.0.1.2

Comments

Commenter Comment
Damian Belica -280 fpm , too much for these aircraft.

Route Map